Terminal Aerodrome Forecast
Issued by NWS Wilmington, OH

Current Version | Previous Version | Graphics & Text | Print | Product List | Glossary On
Versions: 1 2 3 4 5 6 7 8 9 10 11 12 13 14 15 16 17 18 19 20 21 22 23 24 25 26
000
FTUS41 KILN 312050 AAA
TAFCVG
TAF AMD
KCVG 312050Z 3121/0124 23006KT P6SM VCTS BKN040CB
     FM010100 00000KT P6SM SCT250
     FM010800 00000KT 4SM BR SCT250
      TEMPO 0110/0112 2SM BR
     FM011400 VRB04KT P6SM SCT025
     FM011800 26005KT P6SM BKN040=

USA.gov is the U.S. government's official web portal to all federal, state and local government web resources and services.